sensor_id;sensor_type;location;lat;lon;timestamp;pressure;altitude;pressure_sealevel;temperature;humidity
32109;BME280;18624;50.042;8.436;2024-01-27T00:02:05;102300.63;;;6.14;100.00
32109;BME280;18624;50.042;8.436;2024-01-27T00:04:32;102308.31;;;6.12;100.00
32109;BME280;18624;50.042;8.436;2024-01-27T00:06:58;102299.22;;;6.04;100.00
32109;BME280;18624;50.042;8.436;2024-01-27T00:09:25;102315.53;;;6.04;100.00
32109;BME280;18624;50.042;8.436;2024-01-27T00:11:51;102257.44;;;5.68;100.00
32109;BME280;18624;50.042;8.436;2024-01-27T00:14:18;102297.09;;;5.97;100.00
32109;BME280;18624;50.042;8.436;2024-01-27T00:16:44;102305.25;;;5.97;100.00
32109;BME280;18624;50.042;8.436;2024-01-27T00:19:11;102300.50;;;5.94;100.00
32109;BME280;18624;50.042;8.436;2024-01-27T00:21:37;102268.66;;;5.67;100.00
32109;BME280;18624;50.042;8.436;2024-01-27T00:24:04;102274.88;;;5.67;100.00
32109;BME280;18624;50.042;8.436;2024-01-27T00:26:31;102309.03;;;5.80;100.00
32109;BME280;18624;50.042;8.436;2024-01-27T00:28:57;102308.97;;;5.77;100.00
32109;BME280;18624;50.042;8.436;2024-01-27T00:31:24;102307.72;;;5.74;100.00
32109;BME280;18624;50.042;8.436;2024-01-27T00:33:50;102308.41;;;5.71;100.00
32109;BME280;18624;50.042;8.436;2024-01-27T00:36:17;102307.09;;;5.65;100.00
32109;BME280;18624;50.042;8.436;2024-01-27T00:38:44;102313.94;;;5.59;100.00
32109;BME280;18624;50.042;8.436;2024-01-27T00:41:16;102270.41;;;5.31;100.00
32109;BME280;18624;50.042;8.436;2024-01-27T00:43:42;102308.97;;;5.49;100.00
32109;BME280;18624;50.042;8.436;2024-01-27T00:46:09;102313.75;;;5.40;100.00
32109;BME280;18624;50.042;8.436;2024-01-27T00:48:35;102316.31;;;5.32;100.00
32109;BME280;18624;50.042;8.436;2024-01-27T00:51:02;102309.19;;;5.28;100.00
32109;BME280;18624;50.042;8.436;2024-01-27T00:53:29;102325.75;;;5.23;100.00
32109;BME280;18624;50.042;8.436;2024-01-27T00:55:55;102304.19;;;5.18;100.00
32109;BME280;18624;50.042;8.436;2024-01-27T00:58:22;102318.69;;;5.22;100.00
32109;BME280;18624;50.042;8.436;2024-01-27T01:00:48;102312.56;;;5.25;100.00
32109;BME280;18624;50.042;8.436;2024-01-27T01:03:15;102306.34;;;5.24;100.00
32109;BME280;18624;50.042;8.436;2024-01-27T01:05:41;102313.03;;;5.27;100.00
32109;BME280;18624;50.042;8.436;2024-01-27T01:08:08;102317.22;;;5.24;100.00
32109;BME280;18624;50.042;8.436;2024-01-27T01:10:34;102328.47;;;5.23;100.00
32109;BME280;18624;50.042;8.436;2024-01-27T01:13:01;102331.50;;;5.21;100.00
32109;BME280;18624;50.042;8.436;2024-01-27T01:15:27;102328.66;;;5.18;100.00
32109;BME280;18624;50.042;8.436;2024-01-27T01:17:54;102318.41;;;4.99;100.00
32109;BME280;18624;50.042;8.436;2024-01-27T01:20:21;102312.31;;;4.90;100.00
32109;BME280;18624;50.042;8.436;2024-01-27T01:22:47;102342.06;;;5.11;100.00
32109;BME280;18624;50.042;8.436;2024-01-27T01:25:14;102358.81;;;5.13;100.00
32109;BME280;18624;50.042;8.436;2024-01-27T01:27:40;102358.03;;;5.12;100.00
32109;BME280;18624;50.042;8.436;2024-01-27T01:30:07;102354.09;;;5.10;100.00
32109;BME280;18624;50.042;8.436;2024-01-27T01:32:36;102350.00;;;5.03;100.00
32109;BME280;18624;50.042;8.436;2024-01-27T01:35:02;102353.06;;;5.02;100.00
32109;BME280;18624;50.042;8.436;2024-01-27T01:37:30;102361.91;;;4.99;100.00
32109;BME280;18624;50.042;8.436;2024-01-27T01:39:56;102361.91;;;4.99;100.00
32109;BME280;18624;50.042;8.436;2024-01-27T01:42:23;102358.38;;;4.98;100.00
32109;BME280;18624;50.042;8.436;2024-01-27T01:44:51;102354.44;;;4.96;100.00
32109;BME280;18624;50.042;8.436;2024-01-27T01:47:18;102355.22;;;4.96;100.00
32109;BME280;18624;50.042;8.436;2024-01-27T01:49:44;102357.16;;;4.96;100.00
32109;BME280;18624;50.042;8.436;2024-01-27T01:52:11;102353.63;;;4.95;100.00
32109;BME280;18624;50.042;8.436;2024-01-27T01:54:38;102360.56;;;4.93;100.00
32109;BME280;18624;50.042;8.436;2024-01-27T01:57:04;102351.50;;;4.89;100.00
32109;BME280;18624;50.042;8.436;2024-01-27T01:59:31;102353.44;;;4.88;100.00
32109;BME280;18624;50.042;8.436;2024-01-27T02:01:57;102355.34;;;4.88;100.00
32109;BME280;18624;50.042;8.436;2024-01-27T02:04:24;102358.31;;;4.82;100.00
32109;BME280;18624;50.042;8.436;2024-01-27T02:06:51;102351.19;;;4.78;100.00
32109;BME280;18624;50.042;8.436;2024-01-27T02:09:17;102356.03;;;4.72;100.00
32109;BME280;18624;50.042;8.436;2024-01-27T02:11:44;102350.16;;;4.70;100.00
32109;BME280;18624;50.042;8.436;2024-01-27T02:14:11;102350.94;;;4.71;100.00
32109;BME280;18624;50.042;8.436;2024-01-27T02:16:38;102361.56;;;4.76;100.00
32109;BME280;18624;50.042;8.436;2024-01-27T02:19:05;102368.50;;;4.73;100.00
32109;BME280;18624;50.042;8.436;2024-01-27T02:21:32;102375.16;;;4.76;100.00
32109;BME280;18624;50.042;8.436;2024-01-27T02:23:58;102363.16;;;4.77;100.00
32109;BME280;18624;50.042;8.436;2024-01-27T02:26:25;102378.13;;;4.83;100.00
32109;BME280;18624;50.042;8.436;2024-01-27T02:28:51;102379.34;;;4.86;100.00
32109;BME280;18624;50.042;8.436;2024-01-27T02:31:18;102374.03;;;4.89;100.00
32109;BME280;18624;50.042;8.436;2024-01-27T02:33:44;102374.03;;;4.89;100.00
32109;BME280;18624;50.042;8.436;2024-01-27T02:36:11;102382.19;;;4.89;100.00
32109;BME280;18624;50.042;8.436;2024-01-27T02:38:38;102392.25;;;4.89;100.00
32109;BME280;18624;50.042;8.436;2024-01-27T02:41:05;102393.03;;;4.89;100.00
32109;BME280;18624;50.042;8.436;2024-01-27T02:43:32;102387.06;;;4.83;100.00
32109;BME280;18624;50.042;8.436;2024-01-27T02:45:58;102399.63;;;4.88;100.00
32109;BME280;18624;50.042;8.436;2024-01-27T02:48:25;102397.56;;;4.85;100.00
32109;BME280;18624;50.042;8.436;2024-01-27T02:50:51;102395.22;;;4.83;100.00
32109;BME280;18624;50.042;8.436;2024-01-27T02:53:18;102392.84;;;4.82;100.00
32109;BME280;18624;50.042;8.436;2024-01-27T02:55:44;102400.53;;;4.80;100.00
32109;BME280;18624;50.042;8.436;2024-01-27T02:58:11;102395.44;;;4.78;100.00
32109;BME280;18624;50.042;8.436;2024-01-27T03:00:38;102398.94;;;4.79;100.00
32109;BME280;18624;50.042;8.436;2024-01-27T03:03:04;102385.00;;;4.68;100.00
32109;BME280;18624;50.042;8.436;2024-01-27T03:05:31;102399.97;;;4.74;100.00
32109;BME280;18624;50.042;8.436;2024-01-27T03:07:57;102398.69;;;4.72;100.00
32109;BME280;18624;50.042;8.436;2024-01-27T03:10:24;102408.00;;;4.71;100.00
32109;BME280;18624;50.042;8.436;2024-01-27T03:12:51;102398.59;;;4.68;100.00
32109;BME280;18624;50.042;8.436;2024-01-27T03:15:17;102399.59;;;4.64;100.00
32109;BME280;18624;50.042;8.436;2024-01-27T03:17:44;102403.91;;;4.65;100.00
32109;BME280;18624;50.042;8.436;2024-01-27T03:20:10;102408.09;;;4.62;100.00
32109;BME280;18624;50.042;8.436;2024-01-27T03:22:37;102403.00;;;4.61;100.00
32109;BME280;18624;50.042;8.436;2024-01-27T03:25:03;102400.28;;;4.61;100.00
32109;BME280;18624;50.042;8.436;2024-01-27T03:27:30;102404.16;;;4.60;100.00
32109;BME280;18624;50.042;8.436;2024-01-27T03:30:00;102399.38;;;4.56;100.00
32109;BME280;18624;50.042;8.436;2024-01-27T03:32:27;102398.13;;;4.54;100.00
32109;BME280;18624;50.042;8.436;2024-01-27T03:34:53;102405.47;;;4.53;100.00
32109;BME280;18624;50.042;8.436;2024-01-27T03:37:21;102352.38;;;4.19;100.00
32109;BME280;18624;50.042;8.436;2024-01-27T03:39:48;102395.97;;;4.47;100.00
32109;BME280;18624;50.042;8.436;2024-01-27T03:42:15;102383.16;;;4.36;100.00
32109;BME280;18624;50.042;8.436;2024-01-27T03:44:41;102400.28;;;4.48;100.00
32109;BME280;18624;50.042;8.436;2024-01-27T03:47:08;102360.41;;;4.16;100.00
32109;BME280;18624;50.042;8.436;2024-01-27T03:49:34;102406.38;;;4.45;100.00
32109;BME280;18624;50.042;8.436;2024-01-27T03:52:01;102404.66;;;4.41;100.00
32109;BME280;18624;50.042;8.436;2024-01-27T03:54:28;102410.09;;;4.41;100.00
32109;BME280;18624;50.042;8.436;2024-01-27T03:56:54;102408.16;;;4.41;100.00
32109;BME280;18624;50.042;8.436;2024-01-27T03:59:21;102378.03;;;4.22;100.00
32109;BME280;18624;50.042;8.436;2024-01-27T04:01:47;102370.00;;;4.13;100.00
32109;BME280;18624;50.042;8.436;2024-01-27T04:04:14;102333.28;;;3.83;100.00
32109;BME280;18624;50.042;8.436;2024-01-27T04:06:41;102401.56;;;4.18;100.00
32109;BME280;18624;50.042;8.436;2024-01-27T04:09:08;102387.63;;;4.07;100.00
32109;BME280;18624;50.042;8.436;2024-01-27T04:11:35;102407.69;;;4.27;100.00
32109;BME280;18624;50.042;8.436;2024-01-27T04:14:06;102383.53;;;4.01;100.00
32109;BME280;18624;50.042;8.436;2024-01-27T04:16:32;102413.69;;;4.20;100.00
32109;BME280;18624;50.042;8.436;2024-01-27T04:18:59;102419.56;;;4.22;100.00
32109;BME280;18624;50.042;8.436;2024-01-27T04:21:25;102419.09;;;4.20;100.00
32109;BME280;18624;50.042;8.436;2024-01-27T04:23:52;102428.25;;;4.16;100.00
32109;BME280;18624;50.042;8.436;2024-01-27T04:26:19;102431.63;;;4.13;100.00
32109;BME280;18624;50.042;8.436;2024-01-27T04:28:45;102428.91;;;4.13;100.00
32109;BME280;18624;50.042;8.436;2024-01-27T04:31:12;102404.06;;;3.90;100.00
32109;BME280;18624;50.042;8.436;2024-01-27T04:33:38;102440.97;;;4.03;100.00
32109;BME280;18624;50.042;8.436;2024-01-27T04:36:05;102439.41;;;4.02;100.00
32109;BME280;18624;50.042;8.436;2024-01-27T04:38:33;102426.97;;;4.01;100.00
32109;BME280;18624;50.042;8.436;2024-01-27T04:41:00;102404.41;;;3.88;100.00
32109;BME280;18624;50.042;8.436;2024-01-27T04:43:27;102427.16;;;3.96;100.00
32109;BME280;18624;50.042;8.436;2024-01-27T04:45:53;102439.91;;;3.95;100.00
32109;BME280;18624;50.042;8.436;2024-01-27T04:48:20;102438.69;;;3.93;100.00
32109;BME280;18624;50.042;8.436;2024-01-27T04:50:46;102442.19;;;3.93;100.00
32109;BME280;18624;50.042;8.436;2024-01-27T04:53:13;102440.91;;;3.91;100.00
32109;BME280;18624;50.042;8.436;2024-01-27T04:55:39;102437.75;;;3.89;100.00
32109;BME280;18624;50.042;8.436;2024-01-27T04:58:07;102420.34;;;3.69;100.00
32109;BME280;18624;50.042;8.436;2024-01-27T05:00:33;102445.63;;;3.81;100.00
32109;BME280;18624;50.042;8.436;2024-01-27T05:03:00;102444.38;;;3.79;100.00
32109;BME280;18624;50.042;8.436;2024-01-27T05:05:30;102448.53;;;3.76;100.00
32109;BME280;18624;50.042;8.436;2024-01-27T05:08:01;102445.84;;;3.76;100.00
32109;BME280;18624;50.042;8.436;2024-01-27T05:10:28;102445.38;;;3.74;100.00
32109;BME280;18624;50.042;8.436;2024-01-27T05:12:54;102446.81;;;3.72;100.00
32109;BME280;18624;50.042;8.436;2024-01-27T05:15:22;102460.72;;;3.70;100.00
32109;BME280;18624;50.042;8.436;2024-01-27T05:17:48;102463.75;;;3.69;100.00
32109;BME280;18624;50.042;8.436;2024-01-27T05:20:15;102406.28;;;3.34;100.00
32109;BME280;18624;50.042;8.436;2024-01-27T05:22:41;102468.25;;;3.65;100.00
32109;BME280;18624;50.042;8.436;2024-01-27T05:25:08;102466.22;;;3.62;100.00
32109;BME280;18624;50.042;8.436;2024-01-27T05:27:37;102472.09;;;3.64;100.00
32109;BME280;18624;50.042;8.436;2024-01-27T05:30:06;102463.16;;;3.63;100.00
32109;BME280;18624;50.042;8.436;2024-01-27T05:32:32;102448.72;;;3.50;100.00
32109;BME280;18624;50.042;8.436;2024-01-27T05:34:59;102472.28;;;3.59;100.00
32109;BME280;18624;50.042;8.436;2024-01-27T05:37:25;102482.53;;;3.53;100.00
32109;BME280;18624;50.042;8.436;2024-01-27T05:39:52;102491.38;;;3.41;100.00
32109;BME280;18624;50.042;8.436;2024-01-27T05:42:19;102474.50;;;3.36;100.00
32109;BME280;18624;50.042;8.436;2024-01-27T05:44:45;102442.38;;;2.87;100.00
32109;BME280;18624;50.042;8.436;2024-01-27T05:47:12;102486.81;;;2.95;100.00
32109;BME280;18624;50.042;8.436;2024-01-27T05:49:38;102452.72;;;2.47;100.00
32109;BME280;18624;50.042;8.436;2024-01-27T05:52:05;102486.63;;;2.62;100.00
32109;BME280;18624;50.042;8.436;2024-01-27T05:54:32;102489.19;;;2.49;100.00
32109;BME280;18624;50.042;8.436;2024-01-27T05:56:58;102451.50;;;2.10;100.00
32109;BME280;18624;50.042;8.436;2024-01-27T05:59:25;102505.28;;;2.37;100.00
32109;BME280;18624;50.042;8.436;2024-01-27T06:01:51;102499.06;;;2.45;100.00
32109;BME280;18624;50.042;8.436;2024-01-27T06:04:18;102506.66;;;2.52;100.00
32109;BME280;18624;50.042;8.436;2024-01-27T06:06:44;102497.28;;;2.58;100.00
32109;BME280;18624;50.042;8.436;2024-01-27T06:09:11;102491.69;;;2.63;100.00
32109;BME280;18624;50.042;8.436;2024-01-27T06:11:38;102506.97;;;2.68;100.00
32109;BME280;18624;50.042;8.436;2024-01-27T06:14:05;102526.25;;;2.75;100.00
32109;BME280;18624;50.042;8.436;2024-01-27T06:16:32;102523.19;;;2.76;100.00
32109;BME280;18624;50.042;8.436;2024-01-27T06:18:59;102516.69;;;2.69;100.00
32109;BME280;18624;50.042;8.436;2024-01-27T06:21:26;102513.78;;;2.74;100.00
32109;BME280;18624;50.042;8.436;2024-01-27T06:23:53;102511.88;;;2.74;100.00
32109;BME280;18624;50.042;8.436;2024-01-27T06:26:20;102491.38;;;2.56;100.00
32109;BME280;18624;50.042;8.436;2024-01-27T06:28:47;102514.28;;;2.76;100.00
32109;BME280;18624;50.042;8.436;2024-01-27T06:31:15;102519.22;;;2.74;100.00
32109;BME280;18624;50.042;8.436;2024-01-27T06:33:42;102517.47;;;2.69;100.00
32109;BME280;18624;50.042;8.436;2024-01-27T06:36:09;102524.97;;;2.72;100.00
32109;BME280;18624;50.042;8.436;2024-01-27T06:38:37;102523.69;;;2.70;100.00
32109;BME280;18624;50.042;8.436;2024-01-27T06:41:04;102524.50;;;2.70;100.00
32109;BME280;18624;50.042;8.436;2024-01-27T06:43:30;102525.28;;;2.71;100.00
32109;BME280;18624;50.042;8.436;2024-01-27T06:45:57;102530.72;;;2.71;100.00
32109;BME280;18624;50.042;8.436;2024-01-27T06:48:24;102478.38;;;2.41;100.00
32109;BME280;18624;50.042;8.436;2024-01-27T06:50:52;102521.63;;;2.67;100.00
32109;BME280;18624;50.042;8.436;2024-01-27T06:53:19;102523.22;;;2.68;100.00
32109;BME280;18624;50.042;8.436;2024-01-27T06:55:46;102522.44;;;2.67;100.00
32109;BME280;18624;50.042;8.436;2024-01-27T06:58:13;102529.09;;;2.70;100.00
32109;BME280;18624;50.042;8.436;2024-01-27T07:00:39;102514.75;;;2.69;100.00
32109;BME280;18624;50.042;8.436;2024-01-27T07:03:07;102520.81;;;2.75;100.00
32109;BME280;18624;50.042;8.436;2024-01-27T07:05:38;102521.91;;;2.74;100.00
32109;BME280;18624;50.042;8.436;2024-01-27T07:08:07;102515.53;;;2.78;100.00
32109;BME280;18624;50.042;8.436;2024-01-27T07:10:34;102520.31;;;2.82;100.00
32109;BME280;18624;50.042;8.436;2024-01-27T07:13:01;102516.97;;;2.85;100.00
32109;BME280;18624;50.042;8.436;2024-01-27T07:15:28;102412.81;;;2.18;100.00
32109;BME280;18624;50.042;8.436;2024-01-27T07:17:54;102520.78;;;2.84;100.00
32109;BME280;18624;50.042;8.436;2024-01-27T07:20:21;102511.84;;;2.83;100.00
32109;BME280;18624;50.042;8.436;2024-01-27T07:22:50;102494.22;;;2.68;100.00
32109;BME280;18624;50.042;8.436;2024-01-27T07:25:16;102484.06;;;2.57;100.00
32109;BME280;18624;50.042;8.436;2024-01-27T07:27:43;102527.66;;;2.72;100.00
32109;BME280;18624;50.042;8.436;2024-01-27T07:30:10;102533.09;;;2.64;100.00
32109;BME280;18624;50.042;8.436;2024-01-27T07:32:37;102526.91;;;2.37;100.00
32109;BME280;18624;50.042;8.436;2024-01-27T07:35:04;102541.75;;;2.22;100.00
32109;BME280;18624;50.042;8.436;2024-01-27T07:37:32;102533.47;;;2.19;100.00
32109;BME280;18624;50.042;8.436;2024-01-27T07:39:58;102528.69;;;2.16;100.00
32109;BME280;18624;50.042;8.436;2024-01-27T07:42:25;102542.53;;;2.14;100.00
32109;BME280;18624;50.042;8.436;2024-01-27T07:44:51;102522.78;;;1.96;100.00
32109;BME280;18624;50.042;8.436;2024-01-27T07:47:18;102418.88;;;1.28;100.00
32109;BME280;18624;50.042;8.436;2024-01-27T07:49:44;102518.94;;;1.80;100.00
32109;BME280;18624;50.042;8.436;2024-01-27T07:52:11;102546.97;;;2.10;100.00
32109;BME280;18624;50.042;8.436;2024-01-27T07:54:37;102542.88;;;2.21;100.00
32109;BME280;18624;50.042;8.436;2024-01-27T07:57:06;102541.91;;;2.35;100.00
32109;BME280;18624;50.042;8.436;2024-01-27T07:59:33;102529.47;;;2.42;100.00
32109;BME280;18624;50.042;8.436;2024-01-27T08:01:59;102531.22;;;2.38;100.00
32109;BME280;18624;50.042;8.436;2024-01-27T08:04:26;102501.94;;;2.06;100.00
32109;BME280;18624;50.042;8.436;2024-01-27T08:06:52;102535.84;;;2.20;100.00
32109;BME280;18624;50.042;8.436;2024-01-27T08:09:19;102495.09;;;1.91;100.00
32109;BME280;18624;50.042;8.436;2024-01-27T08:11:46;102501.94;;;2.06;100.00
32109;BME280;18624;50.042;8.436;2024-01-27T08:14:18;102538.88;;;2.45;100.00
32109;BME280;18624;50.042;8.436;2024-01-27T08:16:44;102531.53;;;2.54;100.00
32109;BME280;18624;50.042;8.436;2024-01-27T08:19:11;102537.38;;;2.73;100.00
32109;BME280;18624;50.042;8.436;2024-01-27T08:21:37;102541.97;;;2.82;100.00
32109;BME280;18624;50.042;8.436;2024-01-27T08:24:04;102549.94;;;2.87;100.00
32109;BME280;18624;50.042;8.436;2024-01-27T08:26:30;102550.88;;;2.91;100.00
32109;BME280;18624;50.042;8.436;2024-01-27T08:28:57;102559.16;;;2.94;100.00
32109;BME280;18624;50.042;8.436;2024-01-27T08:31:24;102550.84;;;2.99;100.00
32109;BME280;18624;50.042;8.436;2024-01-27T08:33:51;102524.78;;;2.77;100.00
32109;BME280;18624;50.042;8.436;2024-01-27T08:36:18;102565.41;;;2.86;100.00
32109;BME280;18624;50.042;8.436;2024-01-27T08:38:45;102525.16;;;2.50;100.00
32109;BME280;18624;50.042;8.436;2024-01-27T08:41:12;102576.09;;;2.74;100.00
32109;BME280;18624;50.042;8.436;2024-01-27T08:43:38;102524.38;;;2.32;100.00
32109;BME280;18624;50.042;8.436;2024-01-27T08:46:05;102581.38;;;2.70;100.00
32109;BME280;18624;50.042;8.436;2024-01-27T08:48:33;102541.56;;;2.53;100.00
32109;BME280;18624;50.042;8.436;2024-01-27T08:51:00;102562.44;;;2.62;100.00
32109;BME280;18624;50.042;8.436;2024-01-27T08:53:27;102571.47;;;2.74;100.00
32109;BME280;18624;50.042;8.436;2024-01-27T08:55:53;102574.81;;;2.80;100.00
32109;BME280;18624;50.042;8.436;2024-01-27T08:58:19;102576.22;;;2.86;100.00
32109;BME280;18624;50.042;8.436;2024-01-27T09:00:46;102588.19;;;2.85;100.00
32109;BME280;18624;50.042;8.436;2024-01-27T09:03:12;102585.94;;;2.87;100.00
32109;BME280;18624;50.042;8.436;2024-01-27T09:05:40;102584.66;;;2.93;100.00
32109;BME280;18624;50.042;8.436;2024-01-27T09:08:10;102594.22;;;2.99;100.00
32109;BME280;18624;50.042;8.436;2024-01-27T09:10:36;102456.13;;;2.00;100.00
32109;BME280;18624;50.042;8.436;2024-01-27T09:13:03;102545.69;;;2.60;100.00
32109;BME280;18624;50.042;8.436;2024-01-27T09:15:31;102606.94;;;3.08;100.00
32109;BME280;18624;50.042;8.436;2024-01-27T09:17:57;102608.38;;;3.05;100.00
32109;BME280;18624;50.042;8.436;2024-01-27T09:20:24;102550.47;;;2.71;100.00
32109;BME280;18624;50.042;8.436;2024-01-27T09:22:50;102611.56;;;3.16;100.00
32109;BME280;18624;50.042;8.436;2024-01-27T09:25:17;102591.47;;;3.08;100.00
32109;BME280;18624;50.042;8.436;2024-01-27T09:27:43;102563.13;;;2.97;100.00
32109;BME280;18624;50.042;8.436;2024-01-27T09:30:10;102614.19;;;3.33;100.00
32109;BME280;18624;50.042;8.436;2024-01-27T09:32:36;102632.53;;;3.36;100.00
32109;BME280;18624;50.042;8.436;2024-01-27T09:35:03;102626.31;;;3.36;100.00
32109;BME280;18624;50.042;8.436;2024-01-27T09:37:30;102622.47;;;3.37;100.00
32109;BME280;18624;50.042;8.436;2024-01-27T09:39:58;102563.13;;;2.97;100.00
32109;BME280;18624;50.042;8.436;2024-01-27T09:42:27;102626.91;;;3.41;100.00
32109;BME280;18624;50.042;8.436;2024-01-27T09:44:56;102628.66;;;3.46;100.00
32109;BME280;18624;50.042;8.436;2024-01-27T09:47:24;102632.03;;;3.43;100.00
32109;BME280;18624;50.042;8.436;2024-01-27T09:49:51;102620.22;;;3.47;100.00
32109;BME280;18624;50.042;8.436;2024-01-27T09:52:18;102586.28;;;3.33;100.00
32109;BME280;18624;50.042;8.436;2024-01-27T09:54:44;102631.59;;;3.70;100.00
32109;BME280;18624;50.042;8.436;2024-01-27T09:57:11;102603.44;;;3.54;100.00
32109;BME280;18624;50.042;8.436;2024-01-27T09:59:41;102578.91;;;3.42;100.00
32109;BME280;18624;50.042;8.436;2024-01-27T10:02:11;102629.44;;;3.85;100.00
32109;BME280;18624;50.042;8.436;2024-01-27T10:04:41;102604.94;;;3.72;100.00
32109;BME280;18624;50.042;8.436;2024-01-27T10:07:08;102605.22;;;3.79;100.00
32109;BME280;18624;50.042;8.436;2024-01-27T10:09:34;102615.03;;;3.93;100.00
32109;BME280;18624;50.042;8.436;2024-01-27T10:12:01;102614.06;;;3.97;100.00
32109;BME280;18624;50.042;8.436;2024-01-27T10:14:40;102609.56;;;4.01;100.00
32109;BME280;18624;50.042;8.436;2024-01-27T10:17:11;102605.72;;;4.02;100.00
32109;BME280;18624;50.042;8.436;2024-01-27T10:19:38;102610.50;;;4.05;100.00
32109;BME280;18624;50.042;8.436;2024-01-27T10:22:10;102545.31;;;3.64;100.00
32109;BME280;18624;50.042;8.436;2024-01-27T10:24:37;102584.25;;;3.89;100.00
32109;BME280;18624;50.042;8.436;2024-01-27T10:27:04;102610.75;;;4.13;100.00
32109;BME280;18624;50.042;8.436;2024-01-27T10:29:31;102604.53;;;4.12;100.00
32109;BME280;18624;50.042;8.436;2024-01-27T10:32:07;102605.94;;;4.18;100.00
32109;BME280;18624;50.042;8.436;2024-01-27T10:34:35;102594.41;;;4.21;100.00
32109;BME280;18624;50.042;8.436;2024-01-27T10:37:01;102592.81;;;4.20;100.00
32109;BME280;18624;50.042;8.436;2024-01-27T10:39:28;102582.31;;;4.19;100.00
32109;BME280;18624;50.042;8.436;2024-01-27T10:41:54;102586.59;;;4.20;100.00
32109;BME280;18624;50.042;8.436;2024-01-27T10:44:21;102573.81;;;4.20;100.00
32109;BME280;18624;50.042;8.436;2024-01-27T10:46:49;102505.31;;;3.81;100.00
32109;BME280;18624;50.042;8.436;2024-01-27T10:49:17;102572.25;;;4.19;100.00
32109;BME280;18624;50.042;8.436;2024-01-27T10:51:46;102574.97;;;4.19;100.00
32109;BME280;18624;50.042;8.436;2024-01-27T10:54:20;102571.13;;;4.20;100.00
32109;BME280;18624;50.042;8.436;2024-01-27T10:56:51;102560.06;;;4.25;100.00
32109;BME280;18624;50.042;8.436;2024-01-27T10:59:19;102507.75;;;3.95;100.00
32109;BME280;18624;50.042;8.436;2024-01-27T11:01:46;102555.06;;;4.27;100.00
32109;BME280;18624;50.042;8.436;2024-01-27T11:04:17;102553.63;;;4.30;100.00
32109;BME280;18624;50.042;8.436;2024-01-27T11:06:44;102524.44;;;4.06;100.00
32109;BME280;18624;50.042;8.436;2024-01-27T11:09:11;102574.41;;;4.26;100.00
32109;BME280;18624;50.042;8.436;2024-01-27T11:11:40;102521.53;;;4.11;100.00
32109;BME280;18624;50.042;8.436;2024-01-27T11:14:09;102544.47;;;4.35;100.00
32109;BME280;18624;50.042;8.436;2024-01-27T11:16:36;102548.78;;;4.36;100.00
32109;BME280;18624;50.042;8.436;2024-01-27T11:19:05;102557.41;;;4.38;100.00
32109;BME280;18624;50.042;8.436;2024-01-27T11:21:31;102550.03;;;4.38;100.00
32109;BME280;18624;50.042;8.436;2024-01-27T11:23:58;102549.38;;;4.41;100.00
32109;BME280;18624;50.042;8.436;2024-01-27T11:26:24;102549.19;;;4.46;100.00
32109;BME280;18624;50.042;8.436;2024-01-27T11:28:52;102545.78;;;4.49;100.00
32109;BME280;18624;50.042;8.436;2024-01-27T11:31:19;102553.84;;;4.58;100.00
32109;BME280;18624;50.042;8.436;2024-01-27T11:33:48;102570.72;;;4.64;100.00
32109;BME280;18624;50.042;8.436;2024-01-27T11:36:22;102539.06;;;4.68;100.00
32109;BME280;18624;50.042;8.436;2024-01-27T11:38:51;102538.88;;;4.73;100.00
32109;BME280;18624;50.042;8.436;2024-01-27T11:41:28;102543.59;;;4.76;100.00
32109;BME280;18624;50.042;8.436;2024-01-27T11:43:57;102465.16;;;4.29;100.00
32109;BME280;18624;50.042;8.436;2024-01-27T11:46:25;102528.09;;;4.76;100.00
32109;BME280;18624;50.042;8.436;2024-01-27T11:48:51;102543.50;;;4.85;100.00
32109;BME280;18624;50.042;8.436;2024-01-27T11:51:18;102547.59;;;4.91;100.00
32109;BME280;18624;50.042;8.436;2024-01-27T11:53:46;102518.50;;;4.79;100.00
32109;BME280;18624;50.042;8.436;2024-01-27T11:56:13;102547.84;;;4.98;100.00
32109;BME280;18624;50.042;8.436;2024-01-27T11:58:46;102553.06;;;5.03;100.00
32109;BME280;18624;50.042;8.436;2024-01-27T12:01:14;102561.34;;;5.06;100.00
32109;BME280;18624;50.042;8.436;2024-01-27T12:03:42;102546.50;;;5.04;100.00
32109;BME280;18624;50.042;8.436;2024-01-27T12:06:11;102539.72;;;5.10;100.00
32109;BME280;18624;50.042;8.436;2024-01-27T12:08:43;102540.94;;;5.13;100.00
32109;BME280;18624;50.042;8.436;2024-01-27T12:11:15;102555.47;;;5.17;100.00
32109;BME280;18624;50.042;8.436;2024-01-27T12:13:47;102527.03;;;5.02;100.00
32109;BME280;18624;50.042;8.436;2024-01-27T12:16:15;102524.41;;;4.93;100.00
32109;BME280;18624;50.042;8.436;2024-01-27T12:18:42;102558.97;;;5.17;100.00
32109;BME280;18624;50.042;8.436;2024-01-27T12:21:09;102532.44;;;5.02;100.00
32109;BME280;18624;50.042;8.436;2024-01-27T12:23:36;102515.81;;;4.91;100.00
32109;BME280;18624;50.042;8.436;2024-01-27T12:26:02;102556.59;;;5.16;100.00
32109;BME280;18624;50.042;8.436;2024-01-27T12:28:30;102564.75;;;5.16;100.00
32109;BME280;18624;50.042;8.436;2024-01-27T12:30:56;102464.66;;;4.48;100.00
32109;BME280;18624;50.042;8.436;2024-01-27T12:33:23;102576.88;;;5.18;100.00
32109;BME280;18624;50.042;8.436;2024-01-27T12:35:51;102560.09;;;5.16;100.00
32109;BME280;18624;50.042;8.436;2024-01-27T12:38:22;102528.59;;;5.03;100.00
32109;BME280;18624;50.042;8.436;2024-01-27T12:40:48;102538.00;;;5.18;100.00
32109;BME280;18624;50.042;8.436;2024-01-27T12:43:15;102531.13;;;5.20;100.00
32109;BME280;18624;50.042;8.436;2024-01-27T12:45:41;102486.00;;;4.95;100.00
32109;BME280;18624;50.042;8.436;2024-01-27T12:48:08;102522.50;;;5.18;100.00
32109;BME280;18624;50.042;8.436;2024-01-27T12:50:35;102522.03;;;5.16;100.00